x

Central Caribbean - 210 Nm Sse Of Kingston, Jamaica (42058) Wave Buoy

10:50 - Thu 25th Dec 2014 All times are EST. -5 hours from GMT.

  • Sig Wave height 7.9ft
  • Swell Direction
  • Peak Period 8s
  • Average Period 6s
  • Wind
    22mph, 27mph gusts
  • Sea Temp 81°f
  • Aire Temp 82°f
  • Sea Pressure 1016.2mb
  • Central Caribbean - 210 Nm Sse Of Kingston, Jamaica
  • Central Caribbean - 210 Nm Sse Of Kingston, Jamaica

More Historic Weather Station data

Upgrade to MSW Pro to gain access to the past 30 days of data for over 8000 Wavebouys and Weather Stations around the globe.

Join Pro

Comparision Forecast

View Surf forecast
   
jue 12/25 10:50 8ft 8s 6s 22 27 mph 1016.2mb 81f 82f
9:50 8ft 8s 6s 22 27 mph 1016.4mb 81f 82f
8:50 8ft 8s 6s 18 22 mph 1016.5mb 81f 82f
7:50 7.5ft 8s 6s 20 25 mph 1015.7mb 81f 82f
6:50 8.5ft 8s 6s 22 27 mph 1014.9mb 81f 81f
5:50 8.5ft 8s 6s 20 25 mph 1014.2mb 81f 81f
4:50 8.5ft 8s 6s 22 25 mph 1013.7mb 81f 81f
3:50 9ft 8s 6s 25 27 mph 1013.3mb 81f 81f
2:50 9ft 8s 6s 25 29 mph 1013.1mb 82f 81f
1:50 8.5ft 8s 6s 27 29 mph 1013.1mb 82f 81f
12:50 9.5ft 8s 6s 27 31 mph 1013.5mb 82f 81f
mié 12/24 11:50 9ft 8s 6s 25 29 mph 1013.4mb 82f 81f
10:50 8ft 8s 6s 27 34 mph 1013.5mb 82f 82f
9:50 8ft 8s 6s 25 29 mph 1013.6mb 82f 82f
8:50 8ft 8s 6s 25 29 mph 1012.9mb 82f 82f
7:50 8ft 8s 6s 22 27 mph 1012.4mb 82f 82f
6:50 8.5ft 8s 6s 22 27 mph 1011.4mb 82f 82f
5:50 8.5ft 8s 6s 22 31 mph 1011mb 82f 82f
4:50 9ft 8s 6s 20 25 mph 1010.9mb 82f 82f
3:50 9ft 8s 6s 22 29 mph 1010.5mb 82f 82f
2:50 8.5ft 8s 6s 22 27 mph 1010.8mb 82f 82f
1:50 9ft 8s 6s 22 25 mph 1011.3mb 82f 82f
12:50 8ft 8s 6s 20 25 mph 1012mb 82f 82f
11:50 8.5ft 8s 6s 22 27 mph 1012.6mb 82f 82f
10:50 8.5ft 8s 6s 22 29 mph 1013.2mb 82f 82f
9:50 8.5ft 8s 6s 25 29 mph 1013mb 82f 82f
8:50 9.5ft 8s 6s 25 29 mph 1013.1mb 82f 82f
7:50 9ft 8s 6s 25 29 mph 1012.4mb 82f 82f
6:50 10ft 8s 6s 25 31 mph 1011.3mb 82f 82f
5:50 8.5ft 8s 6s 22 29 mph 1010.7mb 82f 82f
4:50 9ft 8s 6s 25 29 mph 1010.1mb 82f 82f
3:50 9ft 8s 6s 25 31 mph 1009.9mb 82f 81f
2:50 9.5ft 8s 6s 25 29 mph 1010.1mb 82f 81f
1:50 10ft 8s 6s 27 31 mph 1010.3mb 82f 81f
12:50 10.5ft 8s 7s 27 31 mph 1010.7mb 82f 82f
mar 12/23 11:50 9ft 8s 6s 27 31 mph 1011.3mb 82f 82f
10:50 10ft 8s 6s 25 29 mph 1011.7mb 82f 82f
9:50 9.5ft 8s 6s 27 36 mph 1011.7mb 82f 82f
8:50 9ft 8s 6s 27 31 mph 1011.5mb 82f 82f
7:50 10ft 8s 6s 27 31 mph 1011mb 82f 82f
6:50 9ft 8s 6s 25 29 mph 1010.4mb 82f 82f
5:50 8.5ft 8s 6s 25 31 mph 1010mb 82f 82f
4:50 8.5ft 8s 6s 27 34 mph 1009.5mb 82f 82f
3:50 8.5ft 8s 6s 25 29 mph 1009.4mb 82f 82f
2:50 9ft 8s 6s 25 29 mph 1009.4mb 82f 82f
1:50 10ft 8s 6s 27 31 mph 1009.6mb 82f 82f
12:50 10ft 8s 6s 27 31 mph 1010.7mb 82f 82f
11:50 8.5ft 8s 6s 27 34 mph 1011.3mb 81f 82f
10:50 9ft 8s 6s 25 31 mph 1012mb 81f 82f
9:50 9ft 8s 6s 25 31 mph 1012.2mb 81f 82f
8:50 9.5ft 8s 6s 27 31 mph 1012mb 81f 82f
7:50 9ft 8s 6s 25 29 mph 1011.3mb 81f 82f
6:50 9ft 8s 6s 27 31 mph 1010.2mb 81f 81f
5:50 9ft 8s 6s 25 29 mph 1009.8mb 81f 81f
4:50 9ft 8s 6s 27 31 mph 1009.6mb 81f 81f
3:50 9ft 8s 6s 27 31 mph 1009.2mb 81f 81f
2:50 9ft 8s 6s 25 31 mph 1009.3mb 81f 81f
1:50 9ft 8s 6s 27 34 mph 1009.5mb 81f 81f
12:50 9ft 7s 6s 27 34 mph 1010mb 81f 81f
lun 12/22 11:50 7ft 7s 5s 27 34 mph 1010.5mb 82f 82f
10:50 7.5ft 7s 5s 27 31 mph 1011.1mb 82f 82f
9:50 7.5ft 8s 5s 27 34 mph 1011.3mb 82f 82f
8:50 7ft 8s 5s 27 31 mph 1011.4mb 82f 82f
7:50 7ft 8s 5s 25 29 mph 1011.3mb 82f 81f
6:50 6ft 8s 5s 22 27 mph 1011.1mb 82f 81f
5:50 7ft 8s 5s 25 29 mph 1010.3mb 82f 82f
4:50 7ft 7s 5s 22 29 mph 1009.9mb 82f 82f
3:50 7.5ft 7s 6s 25 29 mph 1009.9mb 82f 82f
2:50 6ft 7s 5s 22 27 mph 1010.2mb 82f 81f
1:50 7ft 8s 6s 22 27 mph 1010.7mb 82f 82f
12:50 7ft 8s 5s 20 22 mph 1011.9mb 82f 82f
11:50 7.5ft 6s 5s 22 27 mph 1012.9mb 82f 82f
10:50 7.5ft 8s 6s 22 29 mph 1013.5mb 82f 82f
9:50 8ft 8s 6s 25 27 mph 1013.8mb 82f 82f
8:50 8ft 8s 6s 27 31 mph 1013.7mb 82f 82f
7:50 7.5ft 7s 6s 25 31 mph 1013.2mb 82f 80f
6:50 7.5ft 7s 5s 27 31 mph 1012.3mb 82f 81f
5:50 7ft 8s 5s 25 31 mph 1011.9mb 82f 81f
4:50 7ft 6s 5s 27 31 mph 1011.3mb 82f 81f
3:50 7.5ft 7s 6s 25 29 mph 1011.1mb 82f 81f
2:50 6.5ft 8s 5s 25 31 mph 1011.1mb 82f 81f
1:50 7ft 7s 5s 22 29 mph 1011.8mb 82f 81f
12:50 7ft 8s 6s 25 29 mph 1012.4mb 82f 82f
dom 12/21 11:50 7ft 7s 5s 25 29 mph 1013.2mb 82f 81f
10:50 6.5ft 8s 5s 22 27 mph 1013.7mb 82f 82f
9:50 6ft 8s 5s 22 27 mph 1013.9mb 82f 82f
8:50 6ft 7s 5s 22 27 mph 1013.7mb 82f 82f
7:50 5.5ft 8s 5s 18 22 mph 1013.5mb 82f 82f
6:50 6ft 8s 5s 20 22 mph 1012.9mb 82f 81f
5:50 6ft 8s 5s 22 25 mph 1012.4mb 82f 81f